Time,TemperatureF,DewpointF,PressureIn,WindDirection,WindDirectionDegrees,WindSpeedMPH,WindSpeedGustMPH,Humidity,HourlyPrecipIn,Conditions,Clouds,dailyrainin,SolarRadiationWatts/m^2,SoftwareType,DateUTC
2013-04-20 00:02:00,26.0,18.0,-100.00,NW,322,12.0,23.0,70,0.00,,,0.01,0.000000,,2013-04-20 05:02:00,
2013-04-20 00:32:00,25.0,18.0,-100.00,NW,326,10.0,17.0,73,0.00,,,0.01,0.000000,,2013-04-20 05:32:00,
2013-04-20 00:43:00,25.0,18.0,-100.00,NW,326,10.0,17.0,73,0.00,,,0.01,0.000000,,2013-04-20 05:43:00,
2013-04-20 00:52:00,25.0,18.0,-100.00,NW,326,10.0,17.0,73,0.00,,,0.01,0.000000,,2013-04-20 05:52:00,
2013-04-20 01:02:00,25.0,18.0,-100.00,NW,326,10.0,17.0,73,0.00,,,0.01,0.000000,,2013-04-20 06:02:00,
2013-04-20 01:32:00,25.0,18.0,-100.00,NNW,330,10.0,20.0,74,0.00,,,0.01,0.000000,,2013-04-20 06:32:00,
2013-04-20 01:42:00,25.0,18.0,-100.00,NNW,330,10.0,20.0,74,0.00,,,0.01,0.000000,,2013-04-20 06:42:00,
2013-04-20 01:52:00,25.0,18.0,-100.00,NNW,330,10.0,20.0,74,0.00,,,0.01,0.000000,,2013-04-20 06:52:00,
2013-04-20 02:01:00,25.0,18.0,-100.00,NNW,330,10.0,20.0,74,0.00,,,0.01,0.000000,,2013-04-20 07:01:00,
2013-04-20 02:32:00,24.0,18.0,-100.00,NW,315,8.0,15.0,79,0.00,,,-99.99,0.000000,,2013-04-20 07:32:00,
2013-04-20 02:42:00,24.0,18.0,-100.00,NW,315,8.0,15.0,79,0.00,,,-99.99,0.000000,,2013-04-20 07:42:00,
2013-04-20 02:52:00,24.0,18.0,-100.00,NW,315,8.0,15.0,79,0.00,,,-99.99,0.000000,,2013-04-20 07:52:00,
2013-04-20 03:02:00,24.0,18.0,-100.00,NW,315,8.0,15.0,79,0.00,,,-99.99,0.000000,,2013-04-20 08:02:00,
2013-04-20 03:32:00,24.0,17.0,-100.00,NW,322,8.0,14.0,74,0.00,,,0.00,0.000000,,2013-04-20 08:32:00,
2013-04-20 03:42:00,24.0,17.0,-100.00,NW,322,8.0,14.0,74,0.00,,,0.00,0.000000,,2013-04-20 08:42:00,
2013-04-20 03:52:00,24.0,17.0,-100.00,NW,322,8.0,14.0,74,0.00,,,0.00,0.000000,,2013-04-20 08:52:00,
2013-04-20 04:01:00,24.0,17.0,-100.00,NW,322,8.0,14.0,74,0.00,,,0.00,0.000000,,2013-04-20 09:01:00,
2013-04-20 04:33:00,23.0,17.0,-100.00,NW,306,7.0,11.0,76,0.00,,,0.00,0.000000,,2013-04-20 09:33:00,
2013-04-20 04:43:00,23.0,17.0,-100.00,NW,306,7.0,11.0,76,0.00,,,0.00,0.000000,,2013-04-20 09:43:00,
2013-04-20 04:53:00,23.0,17.0,-100.00,NW,306,7.0,11.0,76,0.00,,,0.00,0.000000,,2013-04-20 09:53:00,
2013-04-20 05:03:00,23.0,17.0,-100.00,NW,306,7.0,11.0,76,0.00,,,0.00,0.000000,,2013-04-20 10:03:00,
2013-04-20 05:33:00,22.0,16.0,-100.00,WNW,291,5.0,10.0,79,0.00,,,0.00,0.000000,,2013-04-20 10:33:00,
2013-04-20 05:42:00,22.0,16.0,-100.00,WNW,291,5.0,10.0,79,0.00,,,0.00,0.000000,,2013-04-20 10:42:00,
2013-04-20 05:53:00,22.0,16.0,-100.00,WNW,291,5.0,10.0,79,0.00,,,0.00,0.000000,,2013-04-20 10:53:00,
2013-04-20 06:02:00,22.0,16.0,-100.00,WNW,291,5.0,10.0,79,0.00,,,0.00,0.000000,,2013-04-20 11:02:00,
2013-04-20 06:32:00,22.0,18.0,-100.00,WNW,296,6.0,9.0,84,0.00,,,0.00,0.000000,,2013-04-20 11:32:00,
2013-04-20 06:42:00,22.0,18.0,-100.00,WNW,296,6.0,9.0,84,0.00,,,0.00,0.000000,,2013-04-20 11:42:00,
2013-04-20 06:53:00,22.0,18.0,-100.00,WNW,296,6.0,9.0,84,0.00,,,0.00,0.000000,,2013-04-20 11:53:00,
2013-04-20 07:02:00,22.0,18.0,-100.00,WNW,296,6.0,9.0,84,0.00,,,0.00,0.000000,,2013-04-20 12:02:00,
2013-04-20 07:32:00,24.0,18.0,-100.00,NW,315,8.0,11.0,79,0.00,,,0.00,44.000000,,2013-04-20 12:32:00,
2013-04-20 07:42:00,24.0,18.0,-100.00,NW,315,8.0,11.0,79,0.00,,,0.00,44.000000,,2013-04-20 12:42:00,
2013-04-20 07:52:00,24.0,18.0,-100.00,NW,315,8.0,11.0,79,0.00,,,0.00,44.000000,,2013-04-20 12:52:00,
2013-04-20 08:02:00,24.0,18.0,-100.00,NW,315,8.0,11.0,79,0.00,,,0.00,44.000000,,2013-04-20 13:02:00,
2013-04-20 08:32:00,26.0,16.0,-100.00,NNW,339,9.0,14.0,65,0.00,,,0.00,209.000000,,2013-04-20 13:32:00,
2013-04-20 08:42:00,26.0,16.0,-100.00,NNW,339,9.0,14.0,65,0.00,,,0.00,209.000000,,2013-04-20 13:42:00,
2013-04-20 08:52:00,26.0,16.0,-100.00,NNW,339,9.0,14.0,65,0.00,,,0.00,209.000000,,2013-04-20 13:52:00,
2013-04-20 09:02:00,26.0,16.0,-100.00,NNW,339,9.0,14.0,65,0.00,,,0.00,209.000000,,2013-04-20 14:02:00,
2013-04-20 09:32:00,29.0,10.0,-100.00,NNW,328,11.0,18.0,45,0.00,,,0.00,389.000000,,2013-04-20 14:32:00,
2013-04-20 09:42:00,29.0,10.0,-100.00,NNW,328,11.0,18.0,45,0.00,,,0.00,389.000000,,2013-04-20 14:42:00,
2013-04-20 09:52:00,29.0,10.0,-100.00,NNW,328,11.0,18.0,45,0.00,,,0.00,389.000000,,2013-04-20 14:52:00,
2013-04-20 10:01:00,29.0,10.0,-100.00,NNW,328,11.0,18.0,45,0.00,,,0.00,389.000000,,2013-04-20 15:01:00,
2013-04-20 10:34:00,31.0,11.0,-100.00,NW,311,14.0,19.0,42,0.00,,,0.00,569.000000,,2013-04-20 15:34:00,
2013-04-20 10:43:00,31.0,11.0,-100.00,NW,311,14.0,19.0,42,0.00,,,0.00,569.000000,,2013-04-20 15:43:00,
2013-04-20 10:53:00,31.0,11.0,-100.00,NW,311,14.0,19.0,42,0.00,,,0.00,569.000000,,2013-04-20 15:53:00,
2013-04-20 11:03:00,31.0,11.0,-100.00,NW,311,14.0,19.0,42,0.00,,,0.00,569.000000,,2013-04-20 16:03:00,
2013-04-20 11:33:00,33.0,12.0,-100.00,NW,322,11.0,18.0,41,0.00,,,0.00,720.000000,,2013-04-20 16:33:00,
2013-04-20 11:42:00,33.0,12.0,-100.00,NW,322,11.0,18.0,41,0.00,,,0.00,720.000000,,2013-04-20 16:42:00,
2013-04-20 11:53:00,33.0,12.0,-100.00,NW,322,11.0,18.0,41,0.00,,,0.00,720.000000,,2013-04-20 16:53:00,
2013-04-20 12:02:00,33.0,12.0,-100.00,NW,322,11.0,18.0,41,0.00,,,0.00,720.000000,,2013-04-20 17:02:00,
2013-04-20 12:33:00,34.0,12.0,-100.00,NW,322,11.0,18.0,39,0.00,,,0.00,817.000000,,2013-04-20 17:33:00,
2013-04-20 12:42:00,34.0,12.0,-100.00,NW,322,11.0,18.0,39,0.00,,,0.00,817.000000,,2013-04-20 17:42:00,
2013-04-20 12:52:00,34.0,12.0,-100.00,NW,322,11.0,18.0,39,0.00,,,0.00,817.000000,,2013-04-20 17:52:00,
2013-04-20 13:02:00,34.0,12.0,-100.00,NW,322,11.0,18.0,39,0.00,,,0.00,817.000000,,2013-04-20 18:02:00,
2013-04-20 13:32:00,36.0,12.0,-100.00,NW,308,9.0,19.0,37,0.00,,,0.00,867.000000,,2013-04-20 18:32:00,
2013-04-20 13:42:00,36.0,12.0,-100.00,NW,308,9.0,19.0,37,0.00,,,0.00,867.000000,,2013-04-20 18:42:00,
2013-04-20 13:52:00,36.0,12.0,-100.00,NW,308,9.0,19.0,37,0.00,,,0.00,867.000000,,2013-04-20 18:52:00,
2013-04-20 14:02:00,36.0,12.0,-100.00,NW,308,9.0,19.0,37,0.00,,,0.00,867.000000,,2013-04-20 19:02:00,
2013-04-20 14:32:00,38.0,13.0,-100.00,WNW,283,8.0,17.0,35,0.00,,,0.00,865.000000,,2013-04-20 19:32:00,
2013-04-20 14:42:00,38.0,13.0,-100.00,WNW,283,8.0,17.0,35,0.00,,,0.00,865.000000,,2013-04-20 19:42:00,
2013-04-20 14:52:00,38.0,13.0,-100.00,WNW,283,8.0,17.0,35,0.00,,,0.00,865.000000,,2013-04-20 19:52:00,
2013-04-20 15:02:00,38.0,13.0,-100.00,WNW,283,8.0,17.0,35,0.00,,,0.00,865.000000,,2013-04-20 20:02:00,
2013-04-20 15:32:00,39.0,13.0,-100.00,West,281,7.0,16.0,34,0.00,,,0.00,808.000000,,2013-04-20 20:32:00,
2013-04-20 15:42:00,39.0,13.0,-100.00,West,281,7.0,16.0,34,0.00,,,0.00,808.000000,,2013-04-20 20:42:00,
2013-04-20 15:52:00,39.0,13.0,-100.00,West,281,7.0,16.0,34,0.00,,,0.00,808.000000,,2013-04-20 20:52:00,
2013-04-20 16:01:00,39.0,13.0,-100.00,West,281,7.0,16.0,34,0.00,,,0.00,808.000000,,2013-04-20 21:01:00,
2013-04-20 16:33:00,39.0,12.0,-100.00,West,272,9.0,16.0,33,0.00,,,-99.99,704.000000,,2013-04-20 21:33:00,
2013-04-20 16:43:00,39.0,12.0,-100.00,West,272,9.0,16.0,33,0.00,,,-99.99,704.000000,,2013-04-20 21:43:00,
2013-04-20 16:53:00,39.0,12.0,-100.00,West,272,9.0,16.0,33,0.00,,,-99.99,704.000000,,2013-04-20 21:53:00,
2013-04-20 17:02:00,39.0,12.0,-100.00,West,272,9.0,16.0,33,0.00,,,-99.99,704.000000,,2013-04-20 22:02:00,
2013-04-20 17:33:00,40.0,13.0,-100.00,WNW,303,8.0,15.0,32,0.00,,,0.00,512.000000,,2013-04-20 22:33:00,
2013-04-20 17:42:00,40.0,13.0,-100.00,WNW,303,8.0,15.0,32,0.00,,,0.00,512.000000,,2013-04-20 22:42:00,
2013-04-20 17:53:00,40.0,13.0,-100.00,WNW,303,8.0,15.0,32,0.00,,,0.00,512.000000,,2013-04-20 22:53:00,
2013-04-20 18:02:00,40.0,13.0,-100.00,WNW,303,8.0,15.0,32,0.00,,,0.00,512.000000,,2013-04-20 23:02:00,
2013-04-20 18:32:00,40.0,12.0,-100.00,NW,311,5.0,10.0,31,0.00,,,0.00,363.000000,,2013-04-20 23:32:00,
2013-04-20 18:42:00,40.0,12.0,-100.00,NW,311,5.0,10.0,31,0.00,,,0.00,363.000000,,2013-04-20 23:42:00,
2013-04-20 18:53:00,40.0,12.0,-100.00,NW,311,5.0,10.0,31,0.00,,,0.00,363.000000,,2013-04-20 23:53:00,
2013-04-20 19:01:00,40.0,12.0,-100.00,NW,311,5.0,10.0,31,0.00,,,0.00,363.000000,,2013-04-21 00:01:00,
2013-04-20 20:32:00,33.0,10.0,-100.00,ENE,76,1.0,6.0,37,-99.99,,,0.00,22.000000,,2013-04-21 01:32:00,
2013-04-20 20:42:00,33.0,10.0,-100.00,ENE,76,1.0,6.0,37,-99.99,,,0.00,22.000000,,2013-04-21 01:42:00,
2013-04-20 20:52:00,33.0,10.0,-100.00,ENE,76,1.0,6.0,37,-99.99,,,0.00,22.000000,,2013-04-21 01:52:00,
2013-04-20 21:02:00,33.0,10.0,-100.00,ENE,76,1.0,6.0,37,-99.99,,,0.00,22.000000,,2013-04-21 02:02:00,
2013-04-20 21:32:00,29.0,11.0,-100.00,East,100,1.0,3.0,46,0.00,,,0.00,0.000000,,2013-04-21 02:32:00,
2013-04-20 21:42:00,29.0,11.0,-100.00,East,100,1.0,3.0,46,0.00,,,0.00,0.000000,,2013-04-21 02:42:00,
2013-04-20 21:52:00,29.0,11.0,-100.00,East,100,1.0,3.0,46,0.00,,,0.00,0.000000,,2013-04-21 02:52:00,
2013-04-20 22:01:00,29.0,11.0,-100.00,East,100,1.0,3.0,46,0.00,,,0.00,0.000000,,2013-04-21 03:01:00,
2013-04-20 22:33:00,28.0,16.0,-100.00,NE,53,3.0,4.0,59,0.00,,,0.00,0.000000,,2013-04-21 03:33:00,
2013-04-20 22:42:00,28.0,16.0,-100.00,NE,53,3.0,4.0,59,0.00,,,0.00,0.000000,,2013-04-21 03:42:00,
2013-04-20 22:52:00,28.0,16.0,-100.00,NE,53,3.0,4.0,59,0.00,,,0.00,0.000000,,2013-04-21 03:52:00,
2013-04-20 23:02:00,28.0,16.0,-100.00,NE,53,3.0,4.0,59,0.00,,,0.00,0.000000,,2013-04-21 04:02:00,
2013-04-20 23:33:00,28.0,18.0,-100.00,ESE,112,3.0,5.0,66,0.00,,,0.00,0.000000,,2013-04-21 04:33:00,
2013-04-20 23:42:00,28.0,18.0,-100.00,ESE,112,3.0,5.0,66,0.00,,,0.00,0.000000,,2013-04-21 04:42:00,
2013-04-20 23:53:00,28.0,18.0,-100.00,ESE,112,3.0,5.0,66,0.00,,,0.00,0.000000,,2013-04-21 04:53:00,